createdAt,value
2018-02-21T00:00:29.300Z,1008.83
2018-02-21T00:04:13.874Z,1008.94
2018-02-21T00:05:28.356Z,1008.92
2018-02-21T00:06:42.373Z,1008.98
2018-02-21T00:07:56.877Z,1009.02
2018-02-21T00:09:11.097Z,1009.02
2018-02-21T00:10:26.100Z,1009.07
2018-02-21T00:11:40.114Z,1009.07
2018-02-21T00:12:54.355Z,1009.19
2018-02-21T00:14:08.826Z,1009.12
2018-02-21T00:15:23.552Z,1009.17
2018-02-21T00:16:37.859Z,1009.18
2018-02-21T00:17:52.561Z,1009.14
2018-02-21T00:19:06.568Z,1009.2
2018-02-21T00:20:20.633Z,1009.19
2018-02-21T00:21:34.613Z,1009.15
2018-02-21T00:22:49.156Z,1009.16
2018-02-21T00:24:03.421Z,1009.17
2018-02-21T00:25:17.655Z,1009.21
2018-02-21T00:26:31.430Z,1009.27
2018-02-21T00:27:45.655Z,1009.29
2018-02-21T00:29:00.216Z,1009.34
2018-02-21T00:30:14.541Z,1009.27
2018-02-21T00:31:28.540Z,1009.26
2018-02-21T00:34:12.546Z,1009.37
2018-02-21T00:35:26.790Z,1009.36
2018-02-21T00:36:41.019Z,1009.37
2018-02-21T00:37:55.038Z,1009.27
2018-02-21T00:39:09.837Z,1009.37
2018-02-21T00:40:24.126Z,1009.34
2018-02-21T00:41:38.845Z,1009.3
2018-02-21T00:42:53.317Z,1009.28
2018-02-21T00:44:08.061Z,1009.28
2018-02-21T00:45:22.305Z,1009.31
2018-02-21T00:46:36.567Z,1009.24
2018-02-21T00:47:51.109Z,1009.32
2018-02-21T00:49:05.328Z,1009.36
2018-02-21T00:50:19.326Z,1009.32
2018-02-21T00:51:33.281Z,1009.35
2018-02-21T00:52:47.251Z,1009.4
2018-02-21T00:54:01.522Z,1009.37
2018-02-21T00:55:15.524Z,1009.37
2018-02-21T00:56:29.496Z,1009.38
2018-02-21T00:57:43.963Z,1009.4
2018-02-21T00:58:58.418Z,1009.34
2018-02-21T01:01:42.122Z,1009.41
2018-02-21T01:02:56.854Z,1009.31
2018-02-21T01:04:11.319Z,1009.29
2018-02-21T01:05:25.579Z,1009.35
2018-02-21T01:06:39.912Z,1009.28
2018-02-21T01:07:54.369Z,1009.3
2018-02-21T01:09:08.365Z,1009.32
2018-02-21T01:10:22.330Z,1009.36
2018-02-21T01:11:36.612Z,1009.34
2018-02-21T01:12:51.050Z,1009.33
2018-02-21T01:14:05.513Z,1009.36
2018-02-21T01:15:19.483Z,1009.49
2018-02-21T01:16:33.239Z,1009.4
2018-02-21T01:17:47.503Z,1009.49
2018-02-21T01:19:01.475Z,1009.43
2018-02-21T01:20:15.955Z,1009.5
2018-02-21T01:21:29.947Z,1009.53
2018-02-21T01:22:43.676Z,1009.61
2018-02-21T01:23:57.979Z,1009.68
2018-02-21T01:25:12.440Z,1009.58
2018-02-21T01:26:27.191Z,1009.53
2018-02-21T01:27:41.195Z,1009.54
2018-02-21T01:28:55.190Z,1009.5
2018-02-21T01:30:09.458Z,1009.51
2018-02-21T01:31:23.482Z,1009.54
2018-02-21T01:32:37.969Z,1009.6
2018-02-21T01:33:51.734Z,1009.66
2018-02-21T01:35:05.500Z,1009.61
2018-02-21T01:36:20.029Z,1009.73
2018-02-21T01:37:33.562Z,1009.62
2018-02-21T01:38:48.025Z,1009.59
2018-02-21T01:40:02.610Z,1009.66
2018-02-21T01:41:16.591Z,1009.7
2018-02-21T01:42:31.105Z,1009.63
2018-02-21T01:45:14.465Z,1009.66
2018-02-21T01:46:28.472Z,1009.7
2018-02-21T01:47:43.007Z,1009.72
2018-02-21T01:48:57.544Z,1009.7
2018-02-21T01:50:11.758Z,1009.88
2018-02-21T01:51:26.016Z,1009.74
2018-02-21T01:52:39.996Z,1009.83
2018-02-21T01:53:53.797Z,1009.82
2018-02-21T01:55:07.566Z,1009.84
2018-02-21T01:56:21.546Z,1009.82
2018-02-21T01:57:35.311Z,1009.87
2018-02-21T01:58:49.025Z,1009.91
2018-02-21T02:00:03.265Z,1009.85
2018-02-21T02:01:17.265Z,1009.84
2018-02-21T02:02:31.545Z,1009.82
2018-02-21T02:03:45.535Z,1009.76
2018-02-21T02:04:59.768Z,1009.88
2018-02-21T02:06:14.519Z,1009.8
2018-02-21T02:07:28.747Z,1009.82
2018-02-21T02:08:42.997Z,1009.82
2018-02-21T02:09:56.996Z,1009.84
2018-02-21T02:11:11.235Z,1009.93
2018-02-21T02:12:25.420Z,1009.75
2018-02-21T02:13:39.425Z,1009.78
2018-02-21T02:14:53.212Z,1009.81
2018-02-21T02:16:06.982Z,1009.78
2018-02-21T02:17:21.233Z,1009.84
2018-02-21T02:18:35.757Z,1009.74
2018-02-21T02:19:49.744Z,1009.77
2018-02-21T02:21:03.767Z,1009.84
2018-02-21T02:22:18.258Z,1009.77
2018-02-21T02:23:32.724Z,1009.77
2018-02-21T02:24:47.023Z,1009.79
2018-02-21T02:26:00.773Z,1009.75
2018-02-21T02:27:15.252Z,1009.84
2018-02-21T02:28:29.268Z,1009.83
2018-02-21T02:29:43.508Z,1009.8
2018-02-21T02:30:57.796Z,1009.96
2018-02-21T02:32:12.371Z,1009.9
2018-02-21T02:33:26.343Z,1009.85
2018-02-21T02:34:40.100Z,1010.07
2018-02-21T02:35:54.089Z,1009.83
2018-02-21T02:37:08.609Z,1009.78
2018-02-21T02:38:22.859Z,1009.84
2018-02-21T02:39:36.833Z,1009.91
2018-02-21T02:40:51.308Z,1009.83
2018-02-21T02:42:05.538Z,1009.74
2018-02-21T02:43:19.525Z,1009.74
2018-02-21T02:44:33.763Z,1009.86
2018-02-21T02:45:48.355Z,1009.85
2018-02-21T02:47:17.498Z,1009.87
2018-02-21T02:48:32.648Z,1009.83
2018-02-21T02:49:47.184Z,1009.85
2018-02-21T02:51:01.472Z,1009.94
2018-02-21T02:52:15.684Z,1009.87
2018-02-21T02:53:29.687Z,1009.79
2018-02-21T02:54:44.013Z,1009.89
2018-02-21T02:55:58.497Z,1009.9
2018-02-21T02:57:12.719Z,1009.84
2018-02-21T02:58:26.963Z,1009.84
2018-02-21T02:59:40.953Z,1009.87
2018-02-21T03:00:55.292Z,1009.95
2018-02-21T03:02:09.530Z,1009.91
2018-02-21T03:03:23.753Z,1009.92
2018-02-21T03:04:37.983Z,1009.95
2018-02-21T03:05:51.781Z,1009.97
2018-02-21T03:07:06.310Z,1009.96
2018-02-21T03:08:20.050Z,1009.86
2018-02-21T03:09:34.530Z,1009.84
2018-02-21T03:10:48.502Z,1009.85
2018-02-21T03:12:03.228Z,1009.84
2018-02-21T03:13:18.231Z,1009.98
2018-02-21T03:14:32.455Z,1009.98
2018-02-21T03:15:46.930Z,1009.94
2018-02-21T03:17:00.450Z,1009.96
2018-02-21T03:18:14.385Z,1009.94
2018-02-21T03:19:28.679Z,1009.9
2018-02-21T03:20:42.390Z,1009.98
2018-02-21T03:21:56.571Z,1009.87
2018-02-21T03:23:10.817Z,1009.85
2018-02-21T03:24:25.294Z,1009.92
2018-02-21T03:25:39.602Z,1009.86
2018-02-21T03:26:53.373Z,1009.87
2018-02-21T03:28:07.350Z,1009.85
2018-02-21T03:29:21.837Z,1009.84
2018-02-21T03:30:36.316Z,1009.85
2018-02-21T03:31:50.630Z,1009.85
2018-02-21T03:33:04.623Z,1009.91
2018-02-21T03:34:18.608Z,1009.95
2018-02-21T03:35:33.315Z,1009.9
2018-02-21T03:36:47.325Z,1009.91
2018-02-21T03:38:01.607Z,1009.94
2018-02-21T03:39:15.855Z,1009.84
2018-02-21T03:40:29.859Z,1009.86
2018-02-21T03:41:44.320Z,1009.93
2018-02-21T03:42:58.816Z,1009.85
2018-02-21T03:44:12.361Z,1010.03
2018-02-21T03:45:26.120Z,1010.06
2018-02-21T03:46:40.357Z,1009.97
2018-02-21T03:47:54.829Z,1010.05
2018-02-21T03:49:08.565Z,1009.97
2018-02-21T03:50:23.117Z,1009.92
2018-02-21T03:51:36.738Z,1009.99
2018-02-21T03:52:50.487Z,1010
2018-02-21T03:54:04.478Z,1010.23
2018-02-21T03:55:18.673Z,1010.08
2018-02-21T03:56:32.970Z,1010.22
2018-02-21T03:57:46.695Z,1010.04
2018-02-21T03:59:00.427Z,1010.21
2018-02-21T04:01:42.873Z,1010.08
2018-02-21T04:02:56.995Z,1010.1
2018-02-21T04:04:10.979Z,1010.06
2018-02-21T04:05:25.030Z,1010.06
2018-02-21T04:06:39.229Z,1010.1
2018-02-21T04:07:52.930Z,1010.2
2018-02-21T04:09:06.979Z,1010.02
2018-02-21T04:10:21.218Z,1009.97
2018-02-21T04:11:35.164Z,1010.09
2018-02-21T04:12:49.888Z,1010.13
2018-02-21T04:14:03.854Z,1010.08
2018-02-21T04:15:18.637Z,1010.02
2018-02-21T04:16:32.131Z,1010.31
2018-02-21T04:17:46.151Z,1010.28
2018-02-21T04:19:00.161Z,1010.3
2018-02-21T04:20:14.192Z,1010.13
2018-02-21T04:21:28.503Z,1010.06
2018-02-21T04:22:42.533Z,1010.13
2018-02-21T04:23:57.160Z,1010.07
2018-02-21T04:25:11.660Z,1010.02
2018-02-21T04:26:26.400Z,1010.19
2018-02-21T04:27:40.974Z,1010.25
2018-02-21T04:28:54.999Z,1010.09
2018-02-21T04:30:09.485Z,1010.16
2018-02-21T04:31:23.466Z,1010
2018-02-21T04:32:37.744Z,1010.03
2018-02-21T04:33:51.961Z,1010.05
2018-02-21T04:35:06.267Z,1009.99
2018-02-21T04:36:20.792Z,1009.96
2018-02-21T04:37:35.548Z,1009.91
2018-02-21T04:38:49.374Z,1009.91
2018-02-21T04:40:03.962Z,1009.85
2018-02-21T04:41:17.972Z,1009.88
2018-02-21T04:42:31.735Z,1009.87
2018-02-21T04:43:45.229Z,1009.76
2018-02-21T04:44:59.740Z,1009.86
2018-02-21T04:46:14.316Z,1009.89
2018-02-21T04:47:28.321Z,1009.82
2018-02-21T04:48:42.359Z,1009.89
2018-02-21T04:49:56.351Z,1009.81
2018-02-21T04:51:10.357Z,1009.72
2018-02-21T04:52:25.170Z,1009.78
2018-02-21T04:53:39.637Z,1009.74
2018-02-21T04:54:54.150Z,1009.74
2018-02-21T04:56:08.876Z,1009.71
2018-02-21T04:57:23.278Z,1009.74
2018-02-21T04:58:37.368Z,1009.79
2018-02-21T04:59:51.374Z,1009.78
2018-02-21T05:01:05.376Z,1009.79
2018-02-21T05:02:19.600Z,1009.72
2018-02-21T05:03:33.348Z,1009.74
2018-02-21T05:04:47.717Z,1009.81
2018-02-21T05:06:02.211Z,1009.66
2018-02-21T05:07:16.456Z,1009.69
2018-02-21T05:08:30.691Z,1009.6
2018-02-21T05:09:45.434Z,1009.65
2018-02-21T05:10:59.254Z,1009.62
2018-02-21T05:12:13.232Z,1009.64
2018-02-21T05:13:27.440Z,1009.77
2018-02-21T05:14:42.050Z,1009.63
2018-02-21T05:15:56.126Z,1009.66
2018-02-21T05:17:10.468Z,1009.65
2018-02-21T05:18:25.211Z,1009.64
2018-02-21T05:19:39.467Z,1009.64
2018-02-21T05:20:53.979Z,1009.68
2018-02-21T05:22:08.247Z,1009.64
2018-02-21T05:23:23.264Z,1009.63
2018-02-21T05:24:37.500Z,1009.71
2018-02-21T05:25:51.029Z,1009.67
2018-02-21T05:27:04.297Z,1009.67
2018-02-21T05:28:18.016Z,1009.72
2018-02-21T05:29:32.573Z,1009.78
2018-02-21T05:30:47.163Z,1009.72
2018-02-21T05:32:01.125Z,1009.78
2018-02-21T05:33:15.120Z,1009.78
2018-02-21T05:34:28.873Z,1009.78
2018-02-21T05:35:43.153Z,1009.73
2018-02-21T05:36:57.403Z,1009.86
2018-02-21T05:38:11.165Z,1009.77
2018-02-21T05:39:25.189Z,1009.85
2018-02-21T05:40:38.724Z,1009.89
2018-02-21T05:41:53.045Z,1009.67
2018-02-21T05:43:07.292Z,1009.86
2018-02-21T05:44:21.301Z,1009.8
2018-02-21T05:45:35.330Z,1009.98
2018-02-21T05:46:49.593Z,1009.87
2018-02-21T05:48:03.904Z,1009.86
2018-02-21T05:49:18.164Z,1009.84
2018-02-21T05:50:32.608Z,1009.9
2018-02-21T05:51:46.599Z,1009.87
2018-02-21T05:53:00.589Z,1009.86
2018-02-21T05:54:15.228Z,1009.87
2018-02-21T05:55:29.482Z,1009.86
2018-02-21T05:56:43.690Z,1009.92
2018-02-21T05:57:58.176Z,1009.92
2018-02-21T05:59:12.655Z,1009.94
2018-02-21T06:00:26.742Z,1009.86
2018-02-21T06:01:40.542Z,1009.99
2018-02-21T06:03:09.300Z,1009.98
2018-02-21T06:04:23.076Z,1009.97
2018-02-21T06:05:36.902Z,1010.02
2018-02-21T06:06:51.092Z,1009.92
2018-02-21T06:08:04.852Z,1010.05
2018-02-21T06:09:19.125Z,1009.93
2018-02-21T06:10:32.871Z,1010
2018-02-21T06:11:47.926Z,1009.98
2018-02-21T06:13:02.200Z,1009.94
2018-02-21T06:14:16.216Z,1009.88
2018-02-21T06:15:29.709Z,1010.04
2018-02-21T06:18:12.903Z,1009.88
2018-02-21T06:19:27.232Z,1009.8
2018-02-21T06:20:41.718Z,1009.91
2018-02-21T06:21:56.254Z,1009.93
2018-02-21T06:23:10.252Z,1009.81
2018-02-21T06:24:24.366Z,1009.76
2018-02-21T06:25:38.204Z,1009.82
2018-02-21T06:26:52.718Z,1009.74
2018-02-21T06:28:07.040Z,1009.71
2018-02-21T06:29:21.084Z,1009.77
2018-02-21T06:30:35.653Z,1009.78
2018-02-21T06:31:49.449Z,1009.78
2018-02-21T06:33:03.714Z,1009.94
2018-02-21T06:34:17.950Z,1009.84
2018-02-21T06:35:32.523Z,1009.88
2018-02-21T06:36:47.055Z,1009.94
2018-02-21T06:38:01.276Z,1009.99
2018-02-21T06:39:15.058Z,1009.87
2018-02-21T06:40:29.298Z,1009.87
2018-02-21T06:41:43.048Z,1009.84
2018-02-21T06:42:57.585Z,1009.98
2018-02-21T06:44:11.429Z,1009.9
2018-02-21T06:45:25.467Z,1010.04
2018-02-21T06:46:39.715Z,1010.03
2018-02-21T06:47:53.715Z,1009.99
2018-02-21T06:49:08.045Z,1009.94
2018-02-21T06:50:22.244Z,1010.05
2018-02-21T06:51:36.511Z,1010.13
2018-02-21T06:52:50.528Z,1010.03
2018-02-21T06:54:04.334Z,1010
2018-02-21T06:55:18.590Z,1010.01
2018-02-21T06:56:32.603Z,1010.06
2018-02-21T06:57:46.439Z,1010.3
2018-02-21T06:59:00.679Z,1010.1
2018-02-21T07:00:14.720Z,1010.1
2018-02-21T07:01:28.963Z,1010.05
2018-02-21T07:02:42.722Z,1010.07
2018-02-21T07:03:56.974Z,1010.12
2018-02-21T07:05:11.736Z,1010.18
2018-02-21T07:06:26.239Z,1010.11
2018-02-21T07:07:39.737Z,1010.35
2018-02-21T07:08:54.606Z,1010.37
2018-02-21T07:10:08.870Z,1010.15
2018-02-21T07:11:23.371Z,1010.05
2018-02-21T07:12:37.866Z,1010.11
2018-02-21T07:13:51.388Z,1010.21
2018-02-21T07:15:05.687Z,1010.22
2018-02-21T07:16:19.457Z,1010.33
2018-02-21T07:17:33.474Z,1010.3
2018-02-21T07:18:47.071Z,1010.3
2018-02-21T07:20:00.808Z,1010.37
2018-02-21T07:21:14.093Z,1010.24
2018-02-21T07:22:27.855Z,1010.22
2018-02-21T07:23:41.603Z,1010.28
2018-02-21T07:24:55.862Z,1010.33
2018-02-21T07:26:09.612Z,1010.3
2018-02-21T07:27:23.353Z,1010.31
2018-02-21T07:28:37.860Z,1010.43
2018-02-21T07:29:51.980Z,1010.41
2018-02-21T07:31:05.745Z,1010.46
2018-02-21T07:32:20.234Z,1010.52
2018-02-21T07:33:35.009Z,1010.47
2018-02-21T07:34:49.007Z,1010.3
2018-02-21T07:36:03.056Z,1010.55
2018-02-21T07:37:17.321Z,1010.27
2018-02-21T07:38:31.048Z,1010.52
2018-02-21T07:39:45.082Z,1010.49
2018-02-21T07:42:29.092Z,1010.6
2018-02-21T07:43:43.128Z,1010.4
2018-02-21T07:44:56.888Z,1010.44
2018-02-21T07:46:11.005Z,1010.62
2018-02-21T07:47:25.511Z,1010.56
2018-02-21T07:48:40.003Z,1010.65
2018-02-21T07:49:53.797Z,1010.72
2018-02-21T07:51:08.139Z,1010.55
2018-02-21T07:52:22.227Z,1010.59
2018-02-21T07:53:36.823Z,1010.62
2018-02-21T07:54:51.321Z,1010.55
2018-02-21T07:56:05.625Z,1010.75
2018-02-21T07:57:19.134Z,1010.65
2018-02-21T07:58:48.608Z,1010.52
2018-02-21T08:00:02.853Z,1010.58
2018-02-21T08:01:17.195Z,1010.64
2018-02-21T08:02:30.275Z,1010.69
2018-02-21T08:03:44.841Z,1010.71
2018-02-21T08:04:59.394Z,1010.72
2018-02-21T08:06:13.780Z,1010.67
2018-02-21T08:07:28.075Z,1010.73
2018-02-21T08:08:41.376Z,1010.81
2018-02-21T08:09:55.920Z,1010.77
2018-02-21T08:11:10.445Z,1010.83
2018-02-21T08:12:24.730Z,1010.8
2018-02-21T08:13:38.984Z,1010.78
2018-02-21T08:14:53.355Z,1010.77
2018-02-21T08:16:07.376Z,1010.81
2018-02-21T08:17:21.147Z,1010.85
2018-02-21T08:18:35.408Z,1010.81
2018-02-21T08:19:49.443Z,1010.95
2018-02-21T08:21:03.708Z,1010.87
2018-02-21T08:22:17.487Z,1010.78
2018-02-21T08:23:31.732Z,1010.84
2018-02-21T08:24:46.001Z,1010.85
2018-02-21T08:26:00.048Z,1010.82
2018-02-21T08:27:14.774Z,1010.96
2018-02-21T08:28:28.560Z,1010.85
2018-02-21T08:29:42.333Z,1010.91
2018-02-21T08:30:56.115Z,1010.89
2018-02-21T08:32:10.649Z,1010.99
2018-02-21T08:33:24.652Z,1011
2018-02-21T08:34:38.692Z,1011.02
2018-02-21T08:35:53.016Z,1011.23
2018-02-21T08:37:07.259Z,1011.26
2018-02-21T08:38:21.767Z,1011.32
2018-02-21T08:39:36.000Z,1011.31
2018-02-21T08:40:50.012Z,1011.36
2018-02-21T08:42:03.751Z,1011.48
2018-02-21T08:43:17.551Z,1011.37
2018-02-21T08:44:32.073Z,1011.3
2018-02-21T08:45:46.569Z,1011.36
2018-02-21T08:47:00.809Z,1011.36
2018-02-21T08:48:14.659Z,1011.22
2018-02-21T08:49:29.147Z,1011.18
2018-02-21T08:50:43.690Z,1011.31
2018-02-21T08:51:58.202Z,1011.43
2018-02-21T08:53:12.029Z,1011.29
2018-02-21T08:54:26.729Z,1011.18
2018-02-21T08:55:40.498Z,1011.2
2018-02-21T08:56:54.516Z,1011.29
2018-02-21T08:58:08.979Z,1011.49
2018-02-21T08:59:22.971Z,1011.43
2018-02-21T09:00:36.953Z,1011.41
2018-02-21T09:01:50.953Z,1011.36
2018-02-21T09:03:04.974Z,1011.33
2018-02-21T09:04:19.496Z,1011.39
2018-02-21T09:05:33.469Z,1011.3
2018-02-21T09:06:47.717Z,1011.31
2018-02-21T09:08:01.470Z,1011.44
2018-02-21T09:09:15.676Z,1011.44
2018-02-21T09:10:29.692Z,1011.25
2018-02-21T09:11:44.172Z,1011.28
2018-02-21T09:12:58.651Z,1011.34
2018-02-21T09:14:12.975Z,1011.22
2018-02-21T09:15:27.703Z,1011.5
2018-02-21T09:16:42.037Z,1011.49
2018-02-21T09:17:55.766Z,1011.28
2018-02-21T09:19:09.572Z,1011.42
2018-02-21T09:20:23.540Z,1011.26
2018-02-21T09:21:38.204Z,1011.43
2018-02-21T09:22:52.078Z,1011.32
2018-02-21T09:24:05.828Z,1011.36
2018-02-21T09:25:19.823Z,1011.21
2018-02-21T09:26:34.608Z,1011.19
2018-02-21T09:27:48.675Z,1011.37
2018-02-21T09:29:02.947Z,1011.14
2018-02-21T09:30:17.666Z,1011.19
2018-02-21T09:31:32.073Z,1011.19
2018-02-21T09:32:46.315Z,1011.09
2018-02-21T09:34:00.349Z,1011.14
2018-02-21T09:35:14.692Z,1011.12
2018-02-21T09:36:29.169Z,1011.17
2018-02-21T09:37:43.904Z,1011.2
2018-02-21T09:38:57.916Z,1011.19
2018-02-21T09:40:12.163Z,1011.05
2018-02-21T09:41:25.687Z,1011.14
2018-02-21T09:42:39.682Z,1011.02
2018-02-21T09:43:53.716Z,1011.09
2018-02-21T09:45:07.981Z,1011.13
2018-02-21T09:46:21.978Z,1011.12
2018-02-21T09:47:36.444Z,1011.2
2018-02-21T09:48:50.955Z,1011.1
2018-02-21T09:50:05.202Z,1010.95
2018-02-21T09:51:18.503Z,1011.01
2018-02-21T09:52:32.993Z,1010.93
2018-02-21T09:53:47.729Z,1010.94
2018-02-21T09:55:02.352Z,1010.88
2018-02-21T09:56:16.607Z,1011
2018-02-21T09:57:31.084Z,1011.06
2018-02-21T09:58:45.092Z,1011.15
2018-02-21T09:59:59.354Z,1011
2018-02-21T10:01:13.636Z,1010.96
2018-02-21T10:02:28.129Z,1010.88
2018-02-21T10:03:42.441Z,1010.92
2018-02-21T10:04:56.672Z,1010.93
2018-02-21T10:06:11.189Z,1011.01
2018-02-21T10:07:24.981Z,1011.11
2018-02-21T10:08:38.994Z,1011.05
2018-02-21T10:09:53.008Z,1010.98
2018-02-21T10:11:07.488Z,1011.11
2018-02-21T10:12:22.253Z,1010.91
2018-02-21T10:13:37.018Z,1010.91
2018-02-21T10:14:51.488Z,1010.92
2018-02-21T10:16:04.983Z,1010.88
2018-02-21T10:17:19.202Z,1010.96
2018-02-21T10:18:33.454Z,1010.86
2018-02-21T10:19:47.711Z,1010.86
2018-02-21T10:21:01.475Z,1010.89
2018-02-21T10:22:15.218Z,1010.91
2018-02-21T10:23:29.455Z,1010.9
2018-02-21T10:24:43.483Z,1010.78
2018-02-21T10:25:57.983Z,1010.98
2018-02-21T10:27:12.264Z,1010.88
2018-02-21T10:28:26.610Z,1010.96
2018-02-21T10:29:40.923Z,1010.81
2018-02-21T10:30:54.440Z,1010.89
2018-02-21T10:32:09.155Z,1010.76
2018-02-21T10:33:23.416Z,1010.73
2018-02-21T10:34:37.412Z,1010.67
2018-02-21T10:35:51.879Z,1010.77
2018-02-21T10:37:05.682Z,1010.71
2018-02-21T10:38:18.925Z,1010.7
2018-02-21T10:39:32.731Z,1010.65
2018-02-21T10:40:47.245Z,1010.86
2018-02-21T10:42:01.508Z,1010.62
2018-02-21T10:43:16.007Z,1010.6
2018-02-21T10:44:29.859Z,1010.6
2018-02-21T10:45:43.568Z,1010.67
2018-02-21T10:46:57.571Z,1010.6
2018-02-21T10:48:11.391Z,1010.48
2018-02-21T10:49:25.423Z,1010.53
2018-02-21T10:50:39.480Z,1010.6
2018-02-21T10:51:53.762Z,1010.59
2018-02-21T10:53:08.050Z,1010.54
2018-02-21T10:54:22.051Z,1010.5
2018-02-21T10:55:35.833Z,1010.55
2018-02-21T10:56:49.614Z,1010.38
2018-02-21T10:58:03.625Z,1010.51
2018-02-21T10:59:18.127Z,1010.49
2018-02-21T11:00:32.402Z,1010.69
2018-02-21T11:01:47.062Z,1010.56
2018-02-21T11:03:00.590Z,1010.71
2018-02-21T11:04:14.616Z,1010.52
2018-02-21T11:05:28.385Z,1010.38
2018-02-21T11:06:42.645Z,1010.53
2018-02-21T11:07:56.677Z,1010.45
2018-02-21T11:09:11.183Z,1010.53
2018-02-21T11:10:25.433Z,1010.5
2018-02-21T11:11:39.692Z,1010.56
2018-02-21T11:12:53.713Z,1010.53
2018-02-21T11:14:07.512Z,1010.62
2018-02-21T11:15:21.570Z,1010.46
2018-02-21T11:16:35.594Z,1010.57
2018-02-21T11:17:49.644Z,1010.58
2018-02-21T11:19:03.680Z,1010.48
2018-02-21T11:20:18.421Z,1010.45
2018-02-21T11:21:32.443Z,1010.47
2018-02-21T11:22:46.672Z,1010.46
2018-02-21T11:24:00.910Z,1010.36
2018-02-21T11:25:14.723Z,1010.41
2018-02-21T11:26:28.734Z,1010.39
2018-02-21T11:27:42.724Z,1010.4
2018-02-21T11:28:57.210Z,1010.3
2018-02-21T11:30:11.257Z,1010.43
2018-02-21T11:31:26.043Z,1010.47
2018-02-21T11:32:40.081Z,1010.33
2018-02-21T11:33:54.361Z,1010.37
2018-02-21T11:35:08.714Z,1010.32
2018-02-21T11:36:23.201Z,1010.32
2018-02-21T11:37:37.206Z,1010.38
2018-02-21T11:38:51.175Z,1010.44
2018-02-21T11:40:05.715Z,1010.3
2018-02-21T11:41:19.980Z,1010.48
2018-02-21T11:42:33.722Z,1010.29
2018-02-21T11:43:48.210Z,1010.33
2018-02-21T11:45:01.769Z,1010.23
2018-02-21T11:46:15.345Z,1010.26
2018-02-21T11:47:28.857Z,1010.38
2018-02-21T11:48:42.637Z,1010.51
2018-02-21T11:49:57.126Z,1010.24
2018-02-21T11:51:11.657Z,1010.34
2018-02-21T11:52:25.698Z,1010.34
2018-02-21T11:53:39.489Z,1010.4
2018-02-21T11:54:53.745Z,1010.4
2018-02-21T11:56:08.014Z,1010.15
2018-02-21T11:57:22.028Z,1010.34
2018-02-21T11:58:35.822Z,1010.31
2018-02-21T11:59:49.838Z,1010.29
2018-02-21T12:01:04.115Z,1010.26
2018-02-21T12:02:17.892Z,1010.27
2018-02-21T12:03:31.482Z,1010.03
2018-02-21T12:04:45.779Z,1010.37
2018-02-21T12:06:00.896Z,1010.16
2018-02-21T12:07:14.922Z,1010.1
2018-02-21T12:08:29.317Z,1010.09
2018-02-21T12:09:43.852Z,1010.15
2018-02-21T12:10:57.863Z,1010.32
2018-02-21T12:12:12.156Z,1010.29
2018-02-21T12:13:26.449Z,1010.32
2018-02-21T12:14:40.961Z,1010.27
2018-02-21T12:15:55.229Z,1010.19
2018-02-21T12:17:08.823Z,1010.13
2018-02-21T12:18:22.873Z,1010.1
2018-02-21T12:19:36.901Z,1010.09
2018-02-21T12:20:50.450Z,1010.07
2018-02-21T12:22:04.444Z,1010.08
2018-02-21T12:23:18.500Z,1010.2
2018-02-21T12:24:33.252Z,1010.27
2018-02-21T12:25:47.263Z,1010.14
2018-02-21T12:27:00.815Z,1010.04
2018-02-21T12:28:14.838Z,1010.02
2018-02-21T12:29:28.376Z,1010.05
2018-02-21T12:30:42.491Z,1010.24
2018-02-21T12:31:56.513Z,1010.05
2018-02-21T12:33:10.526Z,1010.24
2018-02-21T12:34:24.798Z,1010.24
2018-02-21T12:35:39.039Z,1009.97
2018-02-21T12:36:52.836Z,1010
2018-02-21T12:38:06.671Z,1009.95
2018-02-21T12:39:21.192Z,1010.14
2018-02-21T12:40:35.501Z,1009.9
2018-02-21T12:41:49.984Z,1009.9
2018-02-21T12:43:04.262Z,1009.94
2018-02-21T12:44:19.034Z,1010.01
2018-02-21T12:45:32.805Z,1010.03
2018-02-21T12:46:47.191Z,1009.91
2018-02-21T12:48:01.461Z,1009.77
2018-02-21T12:49:15.457Z,1009.76
2018-02-21T12:50:30.234Z,1009.71
2018-02-21T12:51:44.507Z,1009.79
2018-02-21T12:52:59.028Z,1009.69
2018-02-21T12:54:13.623Z,1009.68
2018-02-21T12:55:27.721Z,1009.68
2018-02-21T12:56:42.341Z,1009.8
2018-02-21T12:57:56.340Z,1009.74
2018-02-21T12:59:10.371Z,1009.79
2018-02-21T13:00:24.940Z,1009.78
2018-02-21T13:01:39.221Z,1009.76
2018-02-21T13:02:53.746Z,1009.82
2018-02-21T13:04:08.014Z,1009.85
2018-02-21T13:05:22.110Z,1009.69
2018-02-21T13:06:36.389Z,1009.73
2018-02-21T13:07:50.161Z,1009.8
2018-02-21T13:09:04.462Z,1009.7
2018-02-21T13:10:18.737Z,1009.69
2018-02-21T13:11:32.518Z,1009.71
2018-02-21T13:12:47.045Z,1009.65
2018-02-21T13:14:00.387Z,1009.86
2018-02-21T13:15:14.832Z,1009.69
2018-02-21T13:16:29.131Z,1009.6
2018-02-21T13:17:42.720Z,1009.63
2018-02-21T13:18:56.989Z,1009.65
2018-02-21T13:20:11.527Z,1009.63
2018-02-21T13:21:25.784Z,1009.56
2018-02-21T13:22:40.055Z,1009.68
2018-02-21T13:23:54.083Z,1009.55
2018-02-21T13:25:08.131Z,1009.51
2018-02-21T13:26:22.685Z,1009.44
2018-02-21T13:27:36.956Z,1009.45
2018-02-21T13:28:51.220Z,1009.48
2018-02-21T13:30:05.757Z,1009.72
2018-02-21T13:31:19.552Z,1009.63
2018-02-21T13:32:34.233Z,1009.8
2018-02-21T13:33:48.524Z,1009.5
2018-02-21T13:35:02.324Z,1009.47
2018-02-21T13:36:16.833Z,1009.58
2018-02-21T13:37:31.104Z,1009.74
2018-02-21T13:38:44.986Z,1009.42
2018-02-21T13:39:59.030Z,1009.52
2018-02-21T13:41:13.549Z,1009.47
2018-02-21T13:42:28.322Z,1009.66
2018-02-21T13:43:42.612Z,1009.47
2018-02-21T13:44:56.635Z,1009.4
2018-02-21T13:46:10.903Z,1009.5
2018-02-21T13:47:24.462Z,1009.42
2018-02-21T13:48:38.609Z,1009.37
2018-02-21T13:49:52.887Z,1009.42
2018-02-21T13:51:07.383Z,1009.43
2018-02-21T13:52:21.716Z,1009.53
2018-02-21T13:53:36.233Z,1009.45
2018-02-21T13:54:50.745Z,1009.59
2018-02-21T13:56:04.995Z,1009.54
2018-02-21T13:57:19.265Z,1009.32
2018-02-21T13:58:33.312Z,1009.42
2018-02-21T13:59:47.333Z,1009.35
2018-02-21T14:01:00.868Z,1009.24
2018-02-21T14:02:14.860Z,1009.25
2018-02-21T14:03:29.387Z,1009.18
2018-02-21T14:04:43.130Z,1009.16
2018-02-21T14:05:57.626Z,1009.17
2018-02-21T14:07:11.667Z,1009.31
2018-02-21T14:08:25.944Z,1009.26
2018-02-21T14:09:40.430Z,1009.22
2018-02-21T14:10:54.418Z,1009.25
2018-02-21T14:12:08.428Z,1009.32
2018-02-21T14:13:22.434Z,1009.34
2018-02-21T14:14:36.454Z,1009.26
2018-02-21T14:15:50.457Z,1009.23
2018-02-21T14:17:04.290Z,1009.34
2018-02-21T14:18:19.048Z,1009.22
2018-02-21T14:19:33.092Z,1009.15
2018-02-21T14:20:46.887Z,1009.22
2018-02-21T14:22:01.505Z,1009.27
2018-02-21T14:24:44.919Z,1009.33
2018-02-21T14:25:59.432Z,1009.24
2018-02-21T14:27:14.072Z,1009.16
2018-02-21T14:28:27.841Z,1009.15
2018-02-21T14:29:42.620Z,1009.23
2018-02-21T14:30:56.653Z,1009.44
2018-02-21T14:32:10.670Z,1009.69
2018-02-21T14:33:25.416Z,1009.61
2018-02-21T14:34:39.748Z,1009.19
2018-02-21T14:35:54.253Z,1009.26
2018-02-21T14:37:08.308Z,1009.52
2018-02-21T14:38:22.127Z,1009.52
2018-02-21T14:39:36.376Z,1009.1
2018-02-21T14:40:50.629Z,1009.22
2018-02-21T14:42:20.354Z,1009.19
2018-02-21T14:43:34.617Z,1009.11
2018-02-21T14:44:48.627Z,1009.11
2018-02-21T14:46:03.109Z,1009.21
2018-02-21T14:47:17.135Z,1009.09
2018-02-21T14:48:30.912Z,1009.17
2018-02-21T14:49:44.434Z,1009.42
2018-02-21T14:50:58.772Z,1009.08
2018-02-21T14:52:12.983Z,1009.2
2018-02-21T14:53:26.991Z,1009.24
2018-02-21T14:54:41.355Z,1009.12
2018-02-21T14:55:55.898Z,1009.16
2018-02-21T14:57:10.175Z,1009.16
2018-02-21T14:58:24.709Z,1009.05
2018-02-21T14:59:38.729Z,1009.03
2018-02-21T15:00:53.519Z,1008.98
2018-02-21T15:02:07.035Z,1009.26
2018-02-21T15:03:21.069Z,1008.98
2018-02-21T15:04:35.088Z,1009.06
2018-02-21T15:05:48.669Z,1008.96
2018-02-21T15:07:03.165Z,1009.05
2018-02-21T15:08:17.214Z,1008.98
2018-02-21T15:09:31.238Z,1008.96
2018-02-21T15:10:45.257Z,1008.99
2018-02-21T15:11:59.020Z,1008.98
2018-02-21T15:13:13.275Z,1009.03
2018-02-21T15:14:27.792Z,1008.97